Time;durP1;ratioP1;P1;durP2;ratioP2;P2;SDS_P1;SDS_P2;PMS_P1;PMS_P2;Temp;Humidity;BMP_temperature;BMP_pressure;BME280_temperature;BME280_humidity;BME280_pressure;Samples;Min_cycle;Max_cycle;Signal;HPM_P1;HPM_P2
2023/07/17 00:01:02;;;;;;;6.43;3.40;;;22.40;56.40;;;;;;4951874;28;20643;-53
2023/07/17 00:03:37;;;;;;;3.60;2.25;;;22.30;56.20;;;;;;4941419;28;20051;-53
2023/07/17 00:06:37;;;;;;;2.55;2.20;;;22.30;56.30;;;;;;4949538;28;20051;-53
2023/07/17 00:09:18;;;;;;;3.25;2.38;;;22.30;57.10;;;;;;4929031;29;20426;-51
2023/07/17 00:11:52;;;;;;;2.50;2.30;;;22.20;57.20;;;;;;4948595;28;20619;-51
2023/07/17 00:14:25;;;;;;;3.00;2.28;;;22.20;57.20;;;;;;4951639;28;20039;-53
2023/07/17 00:16:57;;;;;;;3.50;2.42;;;22.10;57.70;;;;;;4942807;28;20058;-53
2023/07/17 00:19:32;;;;;;;3.88;2.60;;;22.10;57.90;;;;;;4951045;28;20046;-52
2023/07/17 00:22:16;;;;;;;4.03;2.47;;;22.10;58.30;;;;;;4951653;28;20049;-53
2023/07/17 00:24:53;;;;;;;3.22;1.92;;;22.10;57.80;;;;;;4939202;28;20106;-52
2023/07/17 00:27:35;;;;;;;2.50;2.13;;;22.10;58.00;;;;;;4934988;28;20049;-52
2023/07/17 00:30:06;;;;;;;4.03;2.33;;;22.00;57.70;;;;;;4951084;28;20446;-53
2023/07/17 00:33:09;;;;;;;4.13;1.88;;;22.00;58.20;;;;;;4927869;29;20039;-53
2023/07/17 00:35:42;;;;;;;5.88;2.40;;;22.00;58.10;;;;;;4932781;28;20517;-52
2023/07/17 00:38:21;;;;;;;2.22;1.95;;;22.00;57.70;;;;;;4948706;28;20051;-52
2023/07/17 00:41:04;;;;;;;3.03;2.22;;;22.00;56.90;;;;;;4930882;29;20047;-53
2023/07/17 00:44:06;;;;;;;3.58;2.05;;;22.00;56.50;;;;;;4951474;28;20051;-52
2023/07/17 00:46:35;;;;;;;5.70;2.20;;;21.90;56.90;;;;;;4950041;28;20528;-53
2023/07/17 00:49:12;;;;;;;1.67;1.52;;;21.90;56.60;;;;;;4945506;28;20034;-53
2023/07/17 00:51:45;;;;;;;2.33;1.75;;;21.80;57.30;;;;;;4933695;28;20065;-52
2023/07/17 00:54:48;;;;;;;4.15;1.77;;;21.70;58.50;;;;;;4931213;28;20517;-52
2023/07/17 00:57:42;;;;;;;3.78;2.00;;;21.50;58.70;;;;;;4924677;28;20058;-53
2023/07/17 01:00:18;;;;;;;6.35;2.30;;;21.30;59.00;;;;;;4937964;29;20040;-51
2023/07/17 01:02:58;;;;;;;3.83;2.13;;;21.20;59.40;;;;;;4934829;28;20126;-50
2023/07/17 01:05:34;;;;;;;4.43;2.20;;;21.10;60.60;;;;;;4953441;28;20102;-52
2023/07/17 01:08:25;;;;;;;;;;;;;;;;;;;;;
2023/07/17 01:10:58;;;;;;;2.13;1.92;;;20.90;60.60;;;;;;4930840;29;20580;-52
2023/07/17 01:13:54;;;;;;;2.50;2.05;;;20.80;60.90;;;;;;4931743;28;20476;-52
2023/07/17 01:16:45;;;;;;;2.58;1.80;;;20.70;61.80;;;;;;4945695;28;20048;-52
2023/07/17 01:19:31;;;;;;;2.50;1.90;;;20.70;61.80;;;;;;4945127;28;20035;-53
2023/07/17 01:22:24;;;;;;;3.22;2.00;;;20.60;62.00;;;;;;4951395;28;20054;-53
2023/07/17 01:25:06;;;;;;;2.88;1.95;;;20.70;62.30;;;;;;4929703;29;20079;-51
2023/07/17 01:27:41;;;;;;;4.20;2.42;;;20.70;61.30;;;;;;4931679;29;20054;-52
2023/07/17 01:30:29;;;;;;;3.22;1.98;;;20.60;60.90;;;;;;4954413;28;20040;-49
2023/07/17 01:33:15;;;;;;;2.63;2.10;;;20.70;62.20;;;;;;4938430;29;20819;-53
2023/07/17 01:36:11;;;;;;;3.70;1.73;;;20.60;61.80;;;;;;4933325;28;20109;-52
2023/07/17 01:38:54;;;;;;;4.65;2.67;;;20.70;62.80;;;;;;4948325;28;20051;-53
2023/07/17 01:41:25;;;;;;;2.58;1.90;;;20.70;61.50;;;;;;4935672;29;20047;-53
2023/07/17 01:44:04;;;;;;;2.55;1.92;;;20.60;61.60;;;;;;4954875;28;20114;-52
2023/07/17 01:46:43;;;;;;;5.20;2.20;;;20.60;62.00;;;;;;4932160;28;20047;-52
2023/07/17 01:49:17;;;;;;;3.30;2.30;;;20.60;61.80;;;;;;4936604;29;20043;-50
2023/07/17 01:52:00;;;;;;;2.15;1.92;;;20.60;61.70;;;;;;4954586;28;20501;-53
2023/07/17 01:57:49;;;;;;;3.20;1.73;;;20.60;61.80;;;;;;4933404;29;20059;-53
2023/07/17 02:00:47;;;;;;;3.95;2.70;;;20.60;61.40;;;;;;4936572;29;20148;-52
2023/07/17 02:03:34;;;;;;;2.65;1.75;;;20.70;62.40;;;;;;4943779;28;20052;-51
2023/07/17 02:06:08;;;;;;;1.95;1.75;;;20.60;61.30;;;;;;4951380;28;20545;-53
2023/07/17 02:08:41;;;;;;;3.15;1.90;;;20.60;61.30;;;;;;4935305;28;20044;-53
2023/07/17 02:11:13;;;;;;;3.13;1.45;;;20.60;61.80;;;;;;4933673;29;20036;-50
2023/07/17 02:13:48;;;;;;;3.00;1.63;;;20.60;61.80;;;;;;4935642;28;20051;-53
2023/07/17 02:16:20;;;;;;;2.60;2.40;;;20.60;61.70;;;;;;4934699;29;20126;-52
2023/07/17 02:18:54;;;;;;;1.92;1.65;;;20.60;61.50;;;;;;4930835;29;20043;-53
2023/07/17 02:21:26;;;;;;;2.47;1.65;;;20.60;61.90;;;;;;4953878;28;20053;-52
2023/07/17 02:24:01;;;;;;;1.87;1.60;;;20.50;61.70;;;;;;4931968;29;20110;-51
2023/07/17 02:26:58;;;;;;;2.25;1.60;;;20.50;61.60;;;;;;4947013;28;20039;-51
2023/07/17 02:29:30;;;;;;;2.15;1.65;;;20.50;61.50;;;;;;4951118;28;20047;-53
2023/07/17 02:32:39;;;;;;;2.70;1.70;;;20.40;61.60;;;;;;4936391;29;20050;-53
2023/07/17 02:35:21;;;;;;;2.13;1.50;;;20.40;62.00;;;;;;4943010;28;20044;-51
2023/07/17 02:37:55;;;;;;;2.53;1.58;;;20.40;61.80;;;;;;4916612;28;20134;-53
2023/07/17 02:40:31;;;;;;;2.05;1.45;;;20.30;61.80;;;;;;4930725;29;20089;-53
2023/07/17 02:43:06;;;;;;;2.08;1.48;;;20.30;62.40;;;;;;4954723;28;20081;-52
2023/07/17 02:45:41;;;;;;;2.85;2.00;;;20.30;62.10;;;;;;4946561;28;20048;-52
2023/07/17 02:48:12;;;;;;;1.85;1.60;;;20.30;62.30;;;;;;4949815;28;20067;-52
2023/07/17 02:50:57;;;;;;;2.83;1.60;;;20.20;62.00;;;;;;4935208;28;20505;-53
2023/07/17 02:53:34;;;;;;;2.47;1.58;;;20.20;62.20;;;;;;4934076;29;20039;-52
2023/07/17 02:56:23;;;;;;;3.42;1.70;;;20.10;62.20;;;;;;4929875;29;20484;-53
2023/07/17 02:58:59;;;;;;;1.40;1.30;;;20.10;62.60;;;;;;4953066;28;20126;-53
2023/07/17 03:01:27;;;;;;;2.35;1.65;;;20.00;62.10;;;;;;4931740;29;20139;-53
2023/07/17 03:04:07;;;;;;;2.20;1.85;;;20.00;62.20;;;;;;4940713;28;20098;-53
2023/07/17 03:06:42;;;;;;;2.72;1.60;;;19.90;62.70;;;;;;4949425;28;20050;-53
2023/07/17 03:09:27;;;;;;;2.70;1.67;;;19.90;62.70;;;;;;4946451;28;20589;-53
2023/07/17 03:12:03;;;;;;;2.53;2.33;;;19.90;62.70;;;;;;4943315;28;20067;-52
2023/07/17 03:14:42;;;;;;;2.92;1.63;;;19.80;62.50;;;;;;4933240;28;20083;-53
2023/07/17 03:17:18;;;;;;;2.33;1.60;;;19.80;62.70;;;;;;4947119;28;20526;-52
2023/07/17 03:20:13;;;;;;;1.92;1.73;;;19.80;63.20;;;;;;4946297;28;20406;-51
2023/07/17 03:22:55;;;;;;;2.60;2.28;;;19.70;63.00;;;;;;4935340;28;20051;-53
2023/07/17 03:25:36;;;;;;;2.58;1.80;;;19.70;62.70;;;;;;4938384;28;20497;-52
2023/07/17 03:28:13;;;;;;;3.05;2.10;;;19.70;62.90;;;;;;4931512;29;20043;-51
2023/07/17 03:33:59;;;;;;;2.83;1.73;;;19.60;63.80;;;;;;4952370;28;20272;-53
2023/07/17 03:36:36;;;;;;;2.03;1.67;;;19.60;63.20;;;;;;4929627;29;20059;-52
2023/07/17 03:39:20;;;;;;;4.65;1.70;;;19.50;63.40;;;;;;4930804;29;20051;-52
2023/07/17 03:41:52;;;;;;;2.33;1.80;;;19.50;63.20;;;;;;4951844;28;20049;-53
2023/07/17 03:44:25;;;;;;;2.90;1.77;;;19.50;63.30;;;;;;4935224;29;20158;-51
2023/07/17 03:47:08;;;;;;;3.58;2.00;;;19.40;63.10;;;;;;4949501;28;20039;-52
2023/07/17 03:50:06;;;;;;;4.00;2.05;;;19.40;63.30;;;;;;4950252;28;20059;-53
2023/07/17 03:52:37;;;;;;;2.60;2.00;;;19.40;63.00;;;;;;4949986;28;20035;-53
2023/07/17 03:55:19;;;;;;;4.05;2.13;;;19.40;63.50;;;;;;4935037;28;20089;-52
2023/07/17 03:58:03;;;;;;;3.00;2.00;;;19.40;63.40;;;;;;4935536;29;20035;-52
2023/07/17 04:00:34;;;;;;;3.00;2.05;;;19.30;63.20;;;;;;4931183;29;20051;-51
2023/07/17 04:03:13;;;;;;;3.40;2.05;;;19.30;63.20;;;;;;4935386;29;20039;-53
2023/07/17 04:05:54;;;;;;;3.05;2.03;;;19.30;63.50;;;;;;4914732;28;20521;-53
2023/07/17 04:08:36;;;;;;;2.40;1.65;;;19.30;63.80;;;;;;4935242;29;20051;-51
2023/07/17 04:11:22;;;;;;;2.83;2.35;;;19.30;63.90;;;;;;4935312;29;20497;-53
2023/07/17 04:13:58;;;;;;;6.13;2.20;;;19.30;63.90;;;;;;4939116;28;20326;-53
2023/07/17 04:16:36;;;;;;;5.40;2.60;;;19.30;63.50;;;;;;4935518;28;20047;-51
2023/07/17 04:19:20;;;;;;;2.75;2.00;;;19.30;63.70;;;;;;4924099;29;20048;-53
2023/07/17 04:22:10;;;;;;;3.13;2.13;;;19.30;63.40;;;;;;4929485;28;20129;-51
2023/07/17 04:24:53;;;;;;;4.38;2.47;;;19.30;63.40;;;;;;4924663;28;20047;-52
2023/07/17 04:27:20;;;;;;;4.40;3.05;;;19.30;63.50;;;;;;4932550;29;20514;-52
2023/07/17 04:29:49;;;;;;;3.78;2.58;;;19.30;63.70;;;;;;4920892;28;20047;-52
2023/07/17 04:32:17;;;;;;;3.55;2.47;;;19.30;63.80;;;;;;4946446;28;20126;-48
2023/07/17 04:34:44;;;;;;;3.63;2.35;;;19.40;63.80;;;;;;4925696;28;20047;-53
2023/07/17 04:37:10;;;;;;;3.38;2.35;;;19.40;63.90;;;;;;4924574;29;20678;-52
2023/07/17 04:39:37;;;;;;;2.75;2.08;;;19.40;63.90;;;;;;4924798;28;20639;-52
2023/07/17 04:42:05;;;;;;;4.53;2.20;;;19.40;63.90;;;;;;4930029;29;20040;-53
2023/07/17 04:44:31;;;;;;;6.90;2.38;;;19.40;64.00;;;;;;4931024;29;20102;-52
2023/07/17 04:47:00;;;;;;;4.82;2.42;;;19.40;63.90;;;;;;4927188;29;20051;-52
2023/07/17 04:49:27;;;;;;;2.80;2.08;;;19.50;63.80;;;;;;4931963;29;20039;-50
2023/07/17 04:51:54;;;;;;;4.18;2.25;;;19.50;63.80;;;;;;4935973;29;20090;-50
2023/07/17 04:54:20;;;;;;;3.72;2.35;;;19.50;64.00;;;;;;4921350;29;20049;-52
2023/07/17 04:56:50;;;;;;;3.30;1.73;;;19.50;63.80;;;;;;4940427;28;20589;-52
2023/07/17 04:59:20;;;;;;;4.47;2.28;;;19.50;63.80;;;;;;4927462;29;20082;-49
2023/07/17 05:01:50;;;;;;;2.92;2.00;;;19.50;64.00;;;;;;4909424;29;20047;-53
2023/07/17 05:04:16;;;;;;;5.50;2.53;;;19.50;64.00;;;;;;4914838;29;20135;-52
2023/07/17 05:06:46;;;;;;;5.82;2.83;;;19.50;63.80;;;;;;4924511;29;20631;-53
2023/07/17 05:09:12;;;;;;;4.88;2.30;;;19.50;63.60;;;;;;4928820;28;20469;-52
2023/07/17 05:11:41;;;;;;;3.97;2.55;;;19.50;63.80;;;;;;4898105;28;20127;-51
2023/07/17 05:14:09;;;;;;;6.20;2.78;;;19.50;63.90;;;;;;4924727;28;20043;-52
2023/07/17 05:16:35;;;;;;;3.22;2.70;;;19.50;63.90;;;;;;4919740;29;20052;-52
2023/07/17 05:19:03;;;;;;;3.80;2.30;;;19.50;64.00;;;;;;4923237;29;21403;-52
2023/07/17 05:21:33;;;;;;;5.22;2.65;;;19.50;63.90;;;;;;4925648;29;20087;-53
2023/07/17 05:24:01;;;;;;;4.15;2.60;;;19.50;64.10;;;;;;4918823;28;20084;-52
2023/07/17 05:26:31;;;;;;;4.28;2.22;;;19.50;64.00;;;;;;4920318;29;20102;-53
2023/07/17 05:28:58;;;;;;;4.90;2.83;;;19.60;64.00;;;;;;4913610;29;20059;-51
2023/07/17 05:31:25;;;;;;;4.07;2.53;;;19.60;64.10;;;;;;4923252;29;20047;-49
2023/07/17 05:33:53;;;;;;;5.68;2.30;;;19.60;64.00;;;;;;4946736;28;20062;-53
2023/07/17 05:36:20;;;;;;;3.97;2.30;;;19.60;64.00;;;;;;4925843;29;20073;-51
2023/07/17 05:38:47;;;;;;;4.90;3.35;;;19.60;64.00;;;;;;4917639;29;20087;-49
2023/07/17 05:41:16;;;;;;;5.97;2.75;;;19.60;64.10;;;;;;4917375;29;20433;-49
2023/07/17 05:43:44;;;;;;;4.38;2.53;;;19.60;64.30;;;;;;4938968;28;20100;-52
2023/07/17 05:46:13;;;;;;;3.88;2.00;;;19.60;64.30;;;;;;4917090;29;20143;-53
2023/07/17 05:48:42;;;;;;;2.90;2.33;;;19.60;64.20;;;;;;4911983;29;20058;-53
2023/07/17 05:51:09;;;;;;;3.47;2.40;;;19.60;64.30;;;;;;4933555;28;21227;-49
2023/07/17 05:53:36;;;;;;;3.85;2.65;;;19.70;64.40;;;;;;4959988;23;20063;-50
2023/07/17 05:56:03;;;;;;;4.28;2.40;;;19.70;64.50;;;;;;4913771;29;20066;-53
2023/07/17 05:58:32;;;;;;;6.22;2.30;;;19.70;64.50;;;;;;4892274;29;20122;-53
2023/07/17 06:01:00;;;;;;;3.72;2.42;;;19.70;64.50;;;;;;4908890;29;20040;-51
2023/07/17 06:03:30;;;;;;;4.68;2.30;;;19.70;64.40;;;;;;4913314;29;20035;-50
2023/07/17 06:05:56;;;;;;;3.58;2.50;;;19.70;64.30;;;;;;4938516;29;20078;-49
2023/07/17 06:08:25;;;;;;;4.00;2.17;;;19.70;64.40;;;;;;4945301;29;20502;-50
2023/07/17 06:10:52;;;;;;;5.20;2.95;;;19.80;64.60;;;;;;4945592;29;20043;-51
2023/07/17 06:13:20;;;;;;;5.65;2.13;;;19.80;64.50;;;;;;4942863;28;21819;-50
2023/07/17 06:15:47;;;;;;;6.57;2.65;;;19.80;64.60;;;;;;4939813;29;21015;-51
2023/07/17 06:18:14;;;;;;;3.47;2.30;;;19.90;64.10;;;;;;4942769;29;20058;-51
2023/07/17 06:20:41;;;;;;;5.57;2.47;;;19.90;64.00;;;;;;4941048;29;20051;-49
2023/07/17 06:23:07;;;;;;;7.50;2.40;;;19.90;64.10;;;;;;4952946;29;20085;-48
2023/07/17 06:25:36;;;;;;;5.15;2.88;;;20.00;63.90;;;;;;4954289;29;20101;-50
2023/07/17 06:28:04;;;;;;;3.92;2.47;;;20.00;64.10;;;;;;4941334;29;20043;-49
2023/07/17 06:30:31;;;;;;;6.00;2.88;;;20.10;63.70;;;;;;4939436;29;20561;-49
2023/07/17 06:32:58;;;;;;;3.17;2.22;;;20.10;63.60;;;;;;4948912;29;20724;-52
2023/07/17 06:35:25;;;;;;;3.80;2.53;;;20.20;63.40;;;;;;4954418;29;20129;-49
2023/07/17 06:37:54;;;;;;;3.42;2.17;;;20.30;63.60;;;;;;4946629;29;20107;-52
2023/07/17 06:40:21;;;;;;;4.30;2.50;;;20.30;63.40;;;;;;4942436;29;20082;-49
2023/07/17 06:42:48;;;;;;;3.38;2.30;;;20.40;63.30;;;;;;4948995;29;20043;-47
2023/07/17 06:45:17;;;;;;;4.38;2.60;;;20.50;63.20;;;;;;4953581;29;20180;-53
2023/07/17 06:47:44;;;;;;;5.18;2.97;;;20.60;63.20;;;;;;4953184;29;20043;-49
2023/07/17 06:50:13;;;;;;;4.00;2.88;;;20.60;62.30;;;;;;4945876;29;20050;-47
2023/07/17 06:52:41;;;;;;;6.78;3.00;;;20.70;61.80;;;;;;4942525;29;20051;-50
2023/07/17 06:55:09;;;;;;;3.72;2.60;;;20.70;61.90;;;;;;4950375;29;20410;-51
2023/07/17 06:57:38;;;;;;;3.25;2.78;;;20.70;61.90;;;;;;4951172;29;20405;-50
2023/07/17 07:00:08;;;;;;;4.97;3.17;;;20.70;62.70;;;;;;4948865;29;20517;-52
2023/07/17 07:02:35;;;;;;;4.68;3.30;;;20.70;61.80;;;;;;4947764;29;20086;-53
2023/07/17 07:05:06;;;;;;;7.18;3.75;;;20.70;61.90;;;;;;4950755;29;20077;-51
2023/07/17 07:07:33;;;;;;;5.93;3.67;;;20.70;61.30;;;;;;4950155;29;20098;-51
2023/07/17 07:10:01;;;;;;;6.50;4.10;;;20.70;61.00;;;;;;4943687;29;20040;-52
2023/07/17 07:12:28;;;;;;;4.97;3.35;;;20.70;61.20;;;;;;4945418;29;20079;-52
2023/07/17 07:14:55;;;;;;;4.97;3.85;;;20.70;61.30;;;;;;4953560;29;20098;-49
2023/07/17 07:17:22;;;;;;;5.55;3.92;;;20.80;60.60;;;;;;4951185;29;20098;-51
2023/07/17 07:19:51;;;;;;;8.88;4.22;;;20.80;60.60;;;;;;4925567;29;20044;-52
2023/07/17 07:22:17;;;;;;;6.53;4.05;;;20.90;60.00;;;;;;4951401;29;20054;-52
2023/07/17 07:24:52;;;;;;;9.00;4.38;;;20.90;60.00;;;;;;4952474;28;20581;-51
2023/07/17 07:27:21;;;;;;;6.38;3.58;;;20.90;60.10;;;;;;4951797;29;20094;-51
2023/07/17 07:29:50;;;;;;;7.35;3.63;;;21.00;60.40;;;;;;4953221;29;20131;-50
2023/07/17 07:32:19;;;;;;;8.43;4.47;;;21.10;60.20;;;;;;4948490;29;20069;-50
2023/07/17 07:34:46;;;;;;;7.25;4.25;;;21.10;59.60;;;;;;4947629;29;20082;-51
2023/07/17 07:37:13;;;;;;;6.60;3.67;;;21.10;59.10;;;;;;4952144;29;20077;-47
2023/07/17 07:39:39;;;;;;;7.30;3.88;;;21.10;58.60;;;;;;4941010;29;20102;-51
2023/07/17 07:42:08;;;;;;;7.00;3.72;;;21.20;58.00;;;;;;4950141;29;20051;-48
2023/07/17 07:44:38;;;;;;;4.80;3.53;;;21.20;58.30;;;;;;4950211;29;20121;-49
2023/07/17 07:47:05;;;;;;;7.20;3.88;;;21.20;58.50;;;;;;4949021;29;20051;-52
2023/07/17 07:49:31;;;;;;;8.15;4.50;;;21.30;59.00;;;;;;4947684;29;20046;-51
2023/07/17 07:51:59;;;;;;;6.30;3.58;;;21.30;58.10;;;;;;4949055;29;20039;-51
2023/07/17 07:54:26;;;;;;;4.28;3.60;;;21.30;58.00;;;;;;4948716;29;20106;-51
2023/07/17 07:56:53;;;;;;;9.18;3.83;;;21.30;57.60;;;;;;4929131;29;20596;-50
2023/07/17 07:59:21;;;;;;;4.35;3.20;;;21.30;57.50;;;;;;4950695;29;20050;-52
2023/07/17 08:01:52;;;;;;;6.53;3.05;;;21.30;57.20;;;;;;4952202;29;20047;-51
2023/07/17 08:04:19;;;;;;;4.82;3.15;;;21.40;57.30;;;;;;4951907;29;20047;-52
2023/07/17 08:06:45;;;;;;;5.57;2.85;;;21.40;57.00;;;;;;4948591;29;20131;-51
2023/07/17 08:09:15;;;;;;;5.65;3.50;;;21.40;57.20;;;;;;4943631;29;20043;-50
2023/07/17 08:11:44;;;;;;;6.90;3.40;;;21.50;56.90;;;;;;4950207;29;21375;-52
2023/07/17 08:14:13;;;;;;;4.95;3.17;;;21.50;57.20;;;;;;4949819;29;20058;-53
2023/07/17 08:16:40;;;;;;;7.47;3.70;;;21.50;57.20;;;;;;4951300;29;20051;-49
2023/07/17 08:19:07;;;;;;;6.18;3.15;;;21.60;57.00;;;;;;4942192;29;20039;-51
2023/07/17 08:21:35;;;;;;;8.00;3.55;;;21.70;57.00;;;;;;4933927;29;20090;-51
2023/07/17 08:24:02;;;;;;;5.75;3.38;;;21.80;56.80;;;;;;4946782;29;20051;-52
2023/07/17 08:26:31;;;;;;;6.63;3.25;;;21.90;56.20;;;;;;4944908;29;20059;-48
2023/07/17 08:29:00;;;;;;;6.22;2.65;;;21.90;55.70;;;;;;4926428;29;20043;-48
2023/07/17 08:31:27;;;;;;;4.18;2.83;;;22.00;54.80;;;;;;4950526;29;20385;-51
2023/07/17 08:33:54;;;;;;;6.13;3.38;;;22.00;54.80;;;;;;4938405;29;20048;-51
2023/07/17 08:36:27;;;;;;;4.90;3.03;;;22.10;54.90;;;;;;4951240;28;20118;-49
2023/07/17 08:38:54;;;;;;;5.95;3.15;;;22.10;54.80;;;;;;4940393;28;20129;-54
2023/07/17 08:41:24;;;;;;;4.15;3.13;;;22.10;55.90;;;;;;4944805;29;20090;-52
2023/07/17 08:43:54;;;;;;;5.28;2.88;;;22.20;55.20;;;;;;4947884;29;20083;-51
2023/07/17 08:46:21;;;;;;;6.10;3.15;;;22.30;55.40;;;;;;4935502;28;20047;-51
2023/07/17 08:48:48;;;;;;;5.82;3.33;;;22.50;55.00;;;;;;4937568;29;20040;-50
2023/07/17 08:51:15;;;;;;;5.10;2.90;;;22.60;54.80;;;;;;4949771;29;20039;-49
2023/07/17 08:53:46;;;;;;;7.30;3.40;;;22.70;54.80;;;;;;4950697;29;20046;-52
2023/07/17 08:56:13;;;;;;;7.22;3.95;;;22.80;53.50;;;;;;4944064;29;20043;-49
2023/07/17 08:58:40;;;;;;;3.97;3.13;;;22.90;53.30;;;;;;4943711;29;20453;-51
2023/07/17 09:01:07;;;;;;;5.60;3.65;;;22.90;53.40;;;;;;4947747;29;20114;-52
2023/07/17 09:03:36;;;;;;;5.78;3.03;;;23.00;53.50;;;;;;4945360;29;20078;-49
2023/07/17 09:06:04;;;;;;;7.65;3.60;;;23.10;52.60;;;;;;4950876;29;20050;-52
2023/07/17 09:08:31;;;;;;;4.47;3.10;;;23.10;52.40;;;;;;4945068;29;20098;-48
2023/07/17 09:11:02;;;;;;;4.97;2.60;;;23.20;52.40;;;;;;4945481;28;20055;-52
2023/07/17 09:13:44;;;;;;;5.18;3.17;;;23.30;51.50;;;;;;4955717;28;20106;-48
2023/07/17 09:16:18;;;;;;;5.50;3.13;;;23.40;51.10;;;;;;4953586;28;20050;-52
2023/07/17 09:18:47;;;;;;;4.43;3.10;;;23.50;51.10;;;;;;4947812;28;20040;-51
2023/07/17 09:21:15;;;;;;;6.78;3.10;;;23.50;50.90;;;;;;4945573;29;20043;-51
2023/07/17 09:23:50;;;;;;;8.43;2.95;;;23.60;49.80;;;;;;4945665;29;20118;-51
2023/07/17 09:26:21;;;;;;;8.27;3.15;;;23.60;50.00;;;;;;4950927;29;20039;-53
2023/07/17 09:28:55;;;;;;;6.07;3.13;;;23.60;50.10;;;;;;4951203;29;20701;-51
2023/07/17 09:31:28;;;;;;;4.47;3.40;;;23.60;50.10;;;;;;4950706;29;20098;-50
2023/07/17 09:34:06;;;;;;;3.28;2.75;;;23.70;50.10;;;;;;4942469;29;20054;-49
2023/07/17 09:36:35;;;;;;;5.13;3.30;;;23.70;49.90;;;;;;4951164;29;20070;-51
2023/07/17 09:39:07;;;;;;;5.85;3.50;;;23.70;50.10;;;;;;4942674;29;20043;-50
2023/07/17 09:41:36;;;;;;;6.03;3.40;;;23.70;49.70;;;;;;4948771;29;20086;-48
2023/07/17 09:44:05;;;;;;;4.90;2.95;;;23.70;49.60;;;;;;4951277;29;20047;-48
2023/07/17 09:46:37;;;;;;;5.22;3.53;;;23.70;49.40;;;;;;4947586;29;20048;-51
2023/07/17 09:49:06;;;;;;;5.25;3.38;;;23.60;49.60;;;;;;4949294;28;20043;-48
2023/07/17 09:51:36;;;;;;;;;;;23.60;49.50;;;;;;4951226;29;20049;-51
2023/07/17 09:54:03;;;;;;;5.00;3.15;;;23.60;50.10;;;;;;4950337;29;19958;-52
2023/07/17 09:56:32;;;;;;;5.40;3.78;;;23.50;49.60;;;;;;4948501;29;20130;-48
2023/07/17 09:59:17;;;;;;;5.28;3.83;;;23.50;49.00;;;;;;4952516;29;20051;-50
2023/07/17 10:01:47;;;;;;;7.43;3.72;;;23.50;49.20;;;;;;4948233;29;20043;-48
2023/07/17 10:04:27;;;;;;;5.95;3.50;;;23.40;49.20;;;;;;4953101;29;20082;-49
2023/07/17 10:06:59;;;;;;;4.38;3.30;;;23.40;49.00;;;;;;4953166;29;20694;-50
2023/07/17 10:09:29;;;;;;;5.53;4.28;;;23.40;49.00;;;;;;4944849;29;20043;-48
2023/07/17 10:11:58;;;;;;;5.53;3.60;;;23.50;49.20;;;;;;4952037;29;20106;-48
2023/07/17 10:14:26;;;;;;;6.75;3.72;;;23.50;48.90;;;;;;4953351;29;20103;-51
2023/07/17 10:16:53;;;;;;;6.85;4.00;;;23.50;48.80;;;;;;4949744;29;20071;-46
2023/07/17 10:19:20;;;;;;;4.88;3.47;;;23.50;48.70;;;;;;4942961;29;20043;-48
2023/07/17 10:21:54;;;;;;;4.70;3.80;;;23.50;49.40;;;;;;4953803;29;20135;-51
2023/07/17 10:24:25;;;;;;;5.75;3.80;;;23.50;49.10;;;;;;4952909;29;20082;-49
2023/07/17 10:26:51;;;;;;;5.07;3.83;;;23.50;49.40;;;;;;4946651;29;20071;-48
2023/07/17 10:29:50;;;;;;;9.27;4.20;;;23.50;49.00;;;;;;4951789;29;20090;-50
2023/07/17 10:32:18;;;;;;;4.95;4.00;;;23.50;48.80;;;;;;4931360;29;20083;-50
2023/07/17 10:34:53;;;;;;;6.47;4.05;;;23.50;48.90;;;;;;4937658;29;20528;-47
2023/07/17 10:37:31;;;;;;;6.72;3.78;;;23.60;48.60;;;;;;4954742;29;20044;-46
2023/07/17 10:40:24;;;;;;;4.70;4.10;;;23.70;48.40;;;;;;4949545;29;20098;-49
2023/07/17 10:42:55;;;;;;;6.78;3.75;;;23.70;49.00;;;;;;4947463;29;20050;-47
2023/07/17 10:45:21;;;;;;;9.95;3.63;;;23.80;48.50;;;;;;4951683;28;20055;-46
2023/07/17 10:47:49;;;;;;;4.72;3.97;;;23.80;48.50;;;;;;4942886;29;20056;-51
2023/07/17 10:50:18;;;;;;;6.35;3.88;;;23.80;48.80;;;;;;4951070;29;20062;-47
2023/07/17 10:52:45;;;;;;;5.65;4.28;;;23.80;48.40;;;;;;4949339;29;20082;-49
2023/07/17 10:55:12;;;;;;;5.88;4.65;;;23.90;48.80;;;;;;4947757;29;20110;-47
2023/07/17 10:57:41;;;;;;;6.85;4.35;;;24.00;49.00;;;;;;4944535;29;20091;-46
2023/07/17 11:00:11;;;;;;;6.25;3.88;;;24.10;48.10;;;;;;4948923;28;20062;-50
2023/07/17 11:02:38;;;;;;;5.93;3.53;;;24.30;47.80;;;;;;4948205;29;20053;-45
2023/07/17 11:05:05;;;;;;;5.35;4.40;;;24.40;47.80;;;;;;4944150;29;20070;-47
2023/07/17 11:07:35;;;;;;;6.32;4.05;;;24.50;47.50;;;;;;4948334;29;20102;-51
2023/07/17 11:10:03;;;;;;;8.02;4.30;;;24.50;47.10;;;;;;4947744;29;20091;-49
2023/07/17 11:12:31;;;;;;;6.90;4.82;;;24.60;47.10;;;;;;4947119;29;20063;-46
2023/07/17 11:14:58;;;;;;;5.50;3.67;;;24.70;46.70;;;;;;4946965;29;20134;-48
2023/07/17 11:17:24;;;;;;;6.47;3.90;;;24.80;47.00;;;;;;4948569;29;20094;-48
2023/07/17 11:20:03;;;;;;;6.55;4.55;;;24.90;47.10;;;;;;4949082;29;20093;-47
2023/07/17 11:22:34;;;;;;;4.95;4.00;;;25.00;47.00;;;;;;4947414;29;20506;-47
2023/07/17 11:25:01;;;;;;;7.90;4.30;;;25.00;47.00;;;;;;4940642;29;20036;-50
2023/07/17 11:27:28;;;;;;;5.00;3.60;;;25.10;47.00;;;;;;4942077;29;20047;-48
2023/07/17 11:29:55;;;;;;;6.78;4.40;;;25.20;46.50;;;;;;4950726;29;20066;-49
2023/07/17 11:32:22;;;;;;;7.30;3.78;;;25.20;46.10;;;;;;4949929;29;20142;-48
2023/07/17 11:34:54;;;;;;;5.57;3.85;;;25.20;45.40;;;;;;4947045;29;20043;-48
2023/07/17 11:37:30;;;;;;;;;;;25.10;46.00;;;;;;4938549;29;20039;-51
2023/07/17 11:39:57;;;;;;;6.95;3.90;;;25.20;46.70;;;;;;4944782;29;20009;-48
2023/07/17 11:42:24;;;;;;;6.47;3.83;;;25.10;46.40;;;;;;4951261;29;20062;-51
2023/07/17 11:45:00;;;;;;;3.83;3.45;;;25.20;46.10;;;;;;4945657;29;20099;-47
2023/07/17 11:47:27;;;;;;;5.28;3.60;;;25.30;45.50;;;;;;4952502;29;20046;-51
2023/07/17 11:49:56;;;;;;;4.88;3.50;;;25.40;46.30;;;;;;4942159;29;20098;-50
2023/07/17 11:52:23;;;;;;;3.53;3.22;;;25.60;45.40;;;;;;4952163;29;20458;-49
2023/07/17 11:54:56;;;;;;;6.47;4.03;;;25.70;45.30;;;;;;4952144;29;20039;-50
2023/07/17 11:57:28;;;;;;;3.85;3.38;;;25.80;44.80;;;;;;4945336;29;20105;-49
2023/07/17 12:00:04;;;;;;;4.90;3.88;;;26.00;44.70;;;;;;4939505;23;20080;-57
2023/07/17 12:02:37;;;;;;;5.13;3.92;;;26.20;44.40;;;;;;4910784;29;20139;-56
2023/07/17 12:05:04;;;;;;;4.78;3.58;;;26.30;44.50;;;;;;4909656;29;20044;-55
2023/07/17 12:07:31;;;;;;;4.18;3.35;;;26.40;44.50;;;;;;4911128;29;20051;-55
2023/07/17 12:09:59;;;;;;;5.55;3.75;;;26.60;43.90;;;;;;4894518;29;20041;-53
2023/07/17 12:12:26;;;;;;;5.25;4.03;;;26.60;43.50;;;;;;4893819;29;20482;-54
2023/07/17 12:14:53;;;;;;;4.13;3.70;;;26.70;43.70;;;;;;4895117;29;20658;-56
2023/07/17 12:17:19;;;;;;;5.47;3.65;;;26.80;43.10;;;;;;4892951;29;20141;-54
2023/07/17 12:19:46;;;;;;;4.72;3.45;;;26.80;42.40;;;;;;4885348;29;20604;-53
2023/07/17 12:22:13;;;;;;;4.32;3.67;;;26.90;42.10;;;;;;4892377;29;20541;-57
2023/07/17 12:24:45;;;;;;;5.35;3.72;;;26.90;42.00;;;;;;4892872;29;20080;-54
2023/07/17 12:27:11;;;;;;;6.10;3.60;;;27.00;42.00;;;;;;4892393;29;20051;-54
2023/07/17 12:29:41;;;;;;;5.47;3.83;;;27.00;41.70;;;;;;4895337;29;20052;-57
2023/07/17 12:32:08;;;;;;;4.95;3.15;;;27.00;42.00;;;;;;4878059;29;20111;-56
2023/07/17 12:34:35;;;;;;;4.57;3.42;;;27.00;41.50;;;;;;4893890;29;20072;-54
2023/07/17 12:37:04;;;;;;;3.65;2.97;;;27.10;41.50;;;;;;4892275;29;20081;-56
2023/07/17 12:39:31;;;;;;;4.40;3.13;;;27.20;41.70;;;;;;4888831;29;20499;-56
2023/07/17 12:41:58;;;;;;;3.63;2.72;;;27.20;41.40;;;;;;4890047;29;20067;-56
2023/07/17 12:44:24;;;;;;;6.38;3.53;;;27.30;41.60;;;;;;4894166;29;20063;-57
2023/07/17 12:46:51;;;;;;;5.35;3.35;;;27.40;40.70;;;;;;4894560;29;20667;-57
2023/07/17 12:49:20;;;;;;;3.40;3.05;;;27.50;40.60;;;;;;4894959;29;20145;-57
2023/07/17 12:51:49;;;;;;;4.20;3.40;;;27.50;41.00;;;;;;4891847;29;20475;-57
2023/07/17 12:54:16;;;;;;;4.43;2.97;;;27.60;40.90;;;;;;4894509;29;20116;-56
2023/07/17 12:56:45;;;;;;;4.15;2.67;;;27.70;40.40;;;;;;4893429;29;20043;-56
2023/07/17 12:59:11;;;;;;;5.07;2.88;;;27.80;40.00;;;;;;4897154;29;20464;-57
2023/07/17 13:01:38;;;;;;;5.68;3.20;;;27.90;39.70;;;;;;4890594;29;20055;-56
2023/07/17 13:04:05;;;;;;;3.45;2.85;;;28.00;39.40;;;;;;4893920;29;20554;-54
2023/07/17 13:06:34;;;;;;;3.63;2.95;;;28.10;39.00;;;;;;4878370;29;20079;-56
2023/07/17 13:09:03;;;;;;;2.45;2.05;;;28.20;38.70;;;;;;4887560;29;20780;-57
2023/07/17 13:11:30;;;;;;;3.50;2.95;;;28.30;38.50;;;;;;4888711;29;20055;-54
2023/07/17 13:13:56;;;;;;;2.88;2.45;;;28.40;38.70;;;;;;4876473;29;20514;-57
2023/07/17 13:16:23;;;;;;;3.88;2.35;;;28.50;38.30;;;;;;4892966;29;20056;-54
2023/07/17 13:18:50;;;;;;;5.68;3.38;;;28.50;37.80;;;;;;4896222;29;20072;-57
2023/07/17 13:21:16;;;;;;;4.00;2.38;;;28.60;37.70;;;;;;4893628;29;20128;-56